createdAt,value
2019-05-03T00:02:06.797Z,21.47
2019-05-03T00:04:36.746Z,22.20
2019-05-03T00:07:05.536Z,22.10
2019-05-03T00:09:43.149Z,23.23
2019-05-03T00:12:19.681Z,20.93
2019-05-03T00:14:51.975Z,16.33
2019-05-03T00:17:21.892Z,19.50
2019-05-03T00:19:52.628Z,20.30
2019-05-03T00:22:21.686Z,16.50
2019-05-03T00:25:04.477Z,16.07
2019-05-03T00:27:21.742Z,19.57
2019-05-03T00:29:52.412Z,17.03
2019-05-03T00:32:21.833Z,18.60
2019-05-03T00:35:17.572Z,17.53
2019-05-03T00:37:52.526Z,19.10
2019-05-03T00:40:32.365Z,15.53
2019-05-03T00:43:02.358Z,11.93
2019-05-03T00:45:31.644Z,13.67
2019-05-03T00:48:01.876Z,19.57
2019-05-03T00:50:32.119Z,16.17
2019-05-03T00:53:02.278Z,12.67
2019-05-03T00:55:32.801Z,12.97
2019-05-03T00:58:02.528Z,14.50
2019-05-03T01:00:32.296Z,13.30
2019-05-03T01:03:02.190Z,13.73
2019-05-03T01:05:32.987Z,11.80
2019-05-03T01:08:02.218Z,13.77
2019-05-03T01:10:39.229Z,14.90
2019-05-03T01:13:12.355Z,12.47
2019-05-03T01:15:42.398Z,13.93
2019-05-03T01:18:12.913Z,14.90
2019-05-03T01:20:42.697Z,12.40
2019-05-03T01:23:12.446Z,14.63
2019-05-03T01:25:42.888Z,11.27
2019-05-03T01:28:12.281Z,14.63
2019-05-03T01:30:42.464Z,14.10
2019-05-03T01:33:12.123Z,15.73
2019-05-03T01:35:42.778Z,14.00
2019-05-03T01:38:12.861Z,14.30
2019-05-03T01:40:43.306Z,12.07
2019-05-03T01:43:12.215Z,12.93
2019-05-03T01:45:42.473Z,13.23
2019-05-03T01:48:15.789Z,15.33
2019-05-03T01:50:46.320Z,13.60
2019-05-03T01:53:26.259Z,12.60
2019-05-03T01:55:55.219Z,10.83
2019-05-03T01:58:24.188Z,12.30
2019-05-03T02:01:13.303Z,14.97
2019-05-03T02:03:58.607Z,13.80
2019-05-03T02:06:27.263Z,12.07
2019-05-03T02:08:56.103Z,11.50
2019-05-03T02:11:25.143Z,16.03
2019-05-03T02:13:53.705Z,12.87
2019-05-03T02:16:22.364Z,14.60
2019-05-03T02:18:51.796Z,11.63
2019-05-03T02:21:21.618Z,13.27
2019-05-03T02:23:52.045Z,16.83
2019-05-03T02:26:22.441Z,11.57
2019-05-03T02:28:52.771Z,14.53
2019-05-03T02:31:23.257Z,14.90
2019-05-03T02:33:53.440Z,14.73
2019-05-03T02:36:23.191Z,17.63
2019-05-03T02:38:53.518Z,14.53
2019-05-03T02:41:22.802Z,15.60
2019-05-03T02:43:56.288Z,13.47
2019-05-03T02:46:26.586Z,14.33
2019-05-03T02:49:02.716Z,12.53
2019-05-03T02:51:31.346Z,11.47
2019-05-03T02:54:00.132Z,14.27
2019-05-03T02:56:28.765Z,17.87
2019-05-03T02:58:57.332Z,14.60
2019-05-03T03:01:26.752Z,12.40
2019-05-03T03:03:56.922Z,13.17
2019-05-03T03:06:27.034Z,20.03
2019-05-03T03:08:58.518Z,14.53
2019-05-03T03:11:29.707Z,12.10
2019-05-03T03:13:59.307Z,15.50
2019-05-03T03:16:30.724Z,12.63
2019-05-03T03:19:02.358Z,12.50
2019-05-03T03:21:36.070Z,18.87
2019-05-03T03:24:12.273Z,15.00
2019-05-03T03:26:43.229Z,15.10
2019-05-03T03:29:16.051Z,20.63
2019-05-03T03:32:09.526Z,19.53
2019-05-03T03:34:48.273Z,13.43
2019-05-03T03:37:11.660Z,13.20
2019-05-03T03:39:40.485Z,16.00
2019-05-03T03:42:10.144Z,13.73
2019-05-03T03:44:39.214Z,15.13
2019-05-03T03:47:09.772Z,15.97
2019-05-03T03:49:40.473Z,15.17
2019-05-03T03:52:11.725Z,16.63
2019-05-03T03:54:42.045Z,13.83
2019-05-03T03:57:15.941Z,19.37
2019-05-03T03:59:45.408Z,19.63
2019-05-03T04:02:16.035Z,18.30
2019-05-03T04:04:45.565Z,20.53
2019-05-03T04:07:15.739Z,18.60
2019-05-03T04:09:45.659Z,16.73
2019-05-03T04:12:16.430Z,17.80
2019-05-03T04:15:01.815Z,15.13
2019-05-03T04:17:41.406Z,20.53
2019-05-03T04:20:10.891Z,19.70
2019-05-03T04:22:39.598Z,19.83
2019-05-03T04:25:08.374Z,21.13
2019-05-03T04:27:37.168Z,22.37
2019-05-03T04:30:08.477Z,28.20
2019-05-03T04:32:37.077Z,23.23
2019-05-03T04:35:06.066Z,20.83
2019-05-03T04:37:35.941Z,19.10
2019-05-03T04:40:06.541Z,19.50
2019-05-03T04:42:35.850Z,19.80
2019-05-03T04:45:06.006Z,16.87
2019-05-03T04:47:35.759Z,17.37
2019-05-03T04:50:06.031Z,19.13
2019-05-03T04:52:36.188Z,20.90
2019-05-03T04:55:06.801Z,22.43
2019-05-03T04:57:42.217Z,18.07
2019-05-03T05:00:11.317Z,22.03
2019-05-03T05:02:38.929Z,18.87
2019-05-03T05:05:08.413Z,24.60
2019-05-03T05:07:37.143Z,20.00
2019-05-03T05:10:07.582Z,24.33
2019-05-03T05:12:36.167Z,21.23
2019-05-03T05:15:06.473Z,18.00
2019-05-03T05:17:36.730Z,20.10
2019-05-03T05:20:17.033Z,23.83
2019-05-03T05:22:45.675Z,21.93
2019-05-03T05:25:19.428Z,31.23
2019-05-03T05:27:55.412Z,19.90
2019-05-03T05:30:25.082Z,23.80
2019-05-03T05:32:55.062Z,16.83
2019-05-03T05:35:24.851Z,23.70
2019-05-03T05:37:54.719Z,21.90
2019-05-03T05:40:24.632Z,20.43
2019-05-03T05:42:54.588Z,23.77
2019-05-03T05:45:24.533Z,23.57
2019-05-03T05:47:55.052Z,20.43
2019-05-03T05:50:27.931Z,21.13
2019-05-03T05:52:57.013Z,18.77
2019-05-03T05:55:39.388Z,18.27
2019-05-03T05:58:21.388Z,23.00
2019-05-03T06:00:55.140Z,19.03
2019-05-03T06:03:25.282Z,20.03
2019-05-03T06:06:07.619Z,21.37
2019-05-03T06:08:54.770Z,20.43
2019-05-03T06:11:37.537Z,17.53
2019-05-03T06:14:12.854Z,23.83
2019-05-03T06:16:45.528Z,19.37
2019-05-03T06:19:21.596Z,19.10
2019-05-03T06:21:54.836Z,23.57
2019-05-03T06:24:28.077Z,18.57
2019-05-03T06:26:58.795Z,21.50
2019-05-03T06:29:27.487Z,16.03
2019-05-03T06:32:15.355Z,17.70
2019-05-03T06:34:45.528Z,18.87
2019-05-03T06:37:18.583Z,21.83
2019-05-03T06:39:47.216Z,20.53
2019-05-03T06:42:19.184Z,21.03
2019-05-03T06:44:46.380Z,16.10
2019-05-03T06:47:15.116Z,19.73
2019-05-03T06:49:48.186Z,26.07
2019-05-03T06:52:14.828Z,15.50
2019-05-03T06:54:44.935Z,16.93
2019-05-03T06:57:15.433Z,16.60
2019-05-03T06:59:45.745Z,13.10
2019-05-03T07:02:22.031Z,15.80
2019-05-03T07:05:08.050Z,19.80
2019-05-03T07:07:38.351Z,16.47
2019-05-03T07:10:09.121Z,17.73
2019-05-03T07:12:55.418Z,18.20
2019-05-03T07:15:25.190Z,16.53
2019-05-03T07:17:55.667Z,18.73
2019-05-03T07:20:25.477Z,18.87
2019-05-03T07:22:55.942Z,20.90
2019-05-03T07:25:25.582Z,12.70
2019-05-03T07:27:55.547Z,15.70
2019-05-03T07:30:24.893Z,19.90
2019-05-03T07:32:55.672Z,13.80
2019-05-03T07:35:25.130Z,15.47
2019-05-03T07:37:55.337Z,17.50
2019-05-03T07:40:25.318Z,15.90
2019-05-03T07:42:55.498Z,19.60
2019-05-03T07:45:25.415Z,12.37
2019-05-03T07:47:55.925Z,15.87
2019-05-03T07:50:25.834Z,16.80
2019-05-03T07:52:55.576Z,18.87
2019-05-03T07:55:42.326Z,16.23
2019-05-03T07:58:14.809Z,16.30
2019-05-03T08:00:44.581Z,17.17
2019-05-03T08:03:15.289Z,12.80
2019-05-03T08:05:45.370Z,20.93
2019-05-03T08:08:14.915Z,12.77
2019-05-03T08:10:44.954Z,12.77
2019-05-03T08:16:16.134Z,13.70
2019-05-03T08:18:45.723Z,16.97
2019-05-03T08:21:14.890Z,10.33
2019-05-03T08:23:45.341Z,14.50
2019-05-03T08:26:15.287Z,12.10
2019-05-03T08:28:44.468Z,12.30
2019-05-03T08:31:26.907Z,16.77
2019-05-03T08:34:09.093Z,13.40
2019-05-03T08:36:39.407Z,19.07
2019-05-03T08:39:08.339Z,15.93
2019-05-03T08:41:38.849Z,15.57
2019-05-03T08:44:07.831Z,14.87
2019-05-03T08:46:36.563Z,13.47
2019-05-03T08:49:05.345Z,17.03
2019-05-03T08:51:35.240Z,11.47
2019-05-03T08:54:04.748Z,13.40
2019-05-03T08:56:34.859Z,17.27
2019-05-03T08:59:04.659Z,15.27
2019-05-03T09:01:35.725Z,15.37
2019-05-03T09:04:04.945Z,18.53
2019-05-03T09:06:35.486Z,13.57
2019-05-03T09:09:07.987Z,16.13
2019-05-03T09:11:36.985Z,16.50
2019-05-03T09:14:07.450Z,45.43
2019-05-03T09:16:36.190Z,18.53
2019-05-03T09:19:05.636Z,13.00
2019-05-03T09:21:34.728Z,16.70
2019-05-03T09:24:04.703Z,16.03
2019-05-03T09:26:34.815Z,16.90
2019-05-03T09:29:05.564Z,21.77
2019-05-03T09:31:35.254Z,14.60
2019-05-03T09:34:08.091Z,17.23
2019-05-03T09:36:34.857Z,15.70
2019-05-03T09:39:05.071Z,17.43
2019-05-03T09:41:34.766Z,17.13
2019-05-03T09:44:04.772Z,17.07
2019-05-03T09:46:35.307Z,12.50
2019-05-03T09:49:13.194Z,15.67
2019-05-03T09:51:35.016Z,11.73
2019-05-03T09:54:14.831Z,11.77
2019-05-03T09:57:00.230Z,12.07
2019-05-03T09:59:29.558Z,15.07
2019-05-03T10:01:58.854Z,11.73
2019-05-03T10:04:27.457Z,14.70
2019-05-03T10:06:56.120Z,14.53
2019-05-03T10:09:26.063Z,11.70
2019-05-03T10:11:55.397Z,14.83
2019-05-03T10:14:24.093Z,14.00
2019-05-03T10:17:00.289Z,13.50
2019-05-03T10:19:39.694Z,17.97
2019-05-03T10:21:59.293Z,12.53
2019-05-03T10:24:27.944Z,13.47
2019-05-03T10:26:56.489Z,12.27
2019-05-03T10:29:25.996Z,12.73
2019-05-03T10:32:02.716Z,15.43
2019-05-03T10:34:31.423Z,14.00
2019-05-03T10:37:00.002Z,15.33
2019-05-03T10:39:28.591Z,15.90
2019-05-03T10:41:57.119Z,14.30
2019-05-03T10:44:25.741Z,17.33
2019-05-03T10:46:55.935Z,18.50
2019-05-03T10:49:24.741Z,13.73
2019-05-03T10:52:05.661Z,18.60
2019-05-03T10:54:35.875Z,16.97
2019-05-03T10:57:06.026Z,14.00
2019-05-03T10:59:35.574Z,16.67
2019-05-03T11:02:15.135Z,13.67
2019-05-03T11:04:46.153Z,15.33
2019-05-03T11:07:14.915Z,13.47
2019-05-03T11:09:49.526Z,15.63
2019-05-03T11:12:14.830Z,15.63
2019-05-03T11:14:45.538Z,22.23
2019-05-03T11:17:20.337Z,15.73
2019-05-03T11:19:49.102Z,15.43
2019-05-03T11:22:17.767Z,17.83
2019-05-03T11:24:46.463Z,16.10
2019-05-03T11:27:16.709Z,15.00
2019-05-03T11:29:45.369Z,14.47
2019-05-03T11:32:15.615Z,10.80
2019-05-03T11:34:45.945Z,16.13
2019-05-03T11:37:16.186Z,15.17
2019-05-03T11:39:45.207Z,14.00
2019-05-03T11:42:15.601Z,15.67
2019-05-03T11:44:44.678Z,11.03
2019-05-03T11:47:15.023Z,16.37
2019-05-03T11:49:45.386Z,15.27
2019-05-03T11:52:15.925Z,11.97
2019-05-03T11:54:45.241Z,18.30
2019-05-03T11:57:29.260Z,17.13
2019-05-03T11:59:57.888Z,13.20
2019-05-03T12:02:28.933Z,13.50
2019-05-03T12:04:59.520Z,18.87
2019-05-03T12:07:39.966Z,17.57
2019-05-03T12:10:17.269Z,18.43
2019-05-03T12:12:37.787Z,17.30
2019-05-03T12:15:07.253Z,14.57
2019-05-03T12:17:49.986Z,18.43
2019-05-03T12:20:09.498Z,17.97
2019-05-03T12:22:39.032Z,17.00
2019-05-03T12:25:10.230Z,13.07
2019-05-03T12:27:38.656Z,23.00
2019-05-03T12:30:08.618Z,14.17
2019-05-03T12:32:37.269Z,13.07
2019-05-03T12:35:06.543Z,17.67
2019-05-03T12:37:35.675Z,15.57
2019-05-03T12:40:06.279Z,15.97
2019-05-03T12:42:35.553Z,17.33
2019-05-03T12:45:05.734Z,15.67
2019-05-03T12:47:34.772Z,14.93
2019-05-03T12:50:05.455Z,15.07
2019-05-03T12:52:35.443Z,16.60
2019-05-03T12:55:06.354Z,15.63
2019-05-03T12:57:35.100Z,17.60
2019-05-03T13:00:10.215Z,19.23
2019-05-03T13:02:40.466Z,17.13
2019-05-03T13:05:15.494Z,16.27
2019-05-03T13:07:48.659Z,13.80
2019-05-03T13:10:22.569Z,24.63
2019-05-03T13:12:52.862Z,15.27
2019-05-03T13:15:19.142Z,16.93
2019-05-03T13:17:47.748Z,14.93
2019-05-03T13:20:16.797Z,18.53
2019-05-03T13:22:47.070Z,15.20
2019-05-03T13:25:15.842Z,14.27
2019-05-03T13:27:46.170Z,13.83
2019-05-03T13:30:15.934Z,14.00
2019-05-03T13:32:45.720Z,18.47
2019-05-03T13:35:15.058Z,14.33
2019-05-03T13:37:45.277Z,18.47
2019-05-03T13:40:14.762Z,16.20
2019-05-03T13:42:56.049Z,15.87
2019-05-03T13:45:14.057Z,17.73
2019-05-03T13:47:44.760Z,17.93
2019-05-03T13:50:14.965Z,15.37
2019-05-03T13:52:45.290Z,13.47
2019-05-03T13:55:14.547Z,11.70
2019-05-03T13:57:43.299Z,12.23
2019-05-03T14:00:12.338Z,17.67
2019-05-03T14:02:40.915Z,16.47
2019-05-03T14:05:09.689Z,19.00
2019-05-03T14:07:38.303Z,13.37
2019-05-03T14:10:07.189Z,15.33
2019-05-03T14:12:35.762Z,14.03
2019-05-03T14:15:06.697Z,16.53
2019-05-03T14:17:36.640Z,15.10
2019-05-03T14:20:14.890Z,19.37
2019-05-03T14:22:45.166Z,18.43
2019-05-03T14:25:15.163Z,13.03
2019-05-03T14:27:45.562Z,14.50
2019-05-03T14:30:15.141Z,16.53
2019-05-03T14:32:45.302Z,20.30
2019-05-03T14:35:16.089Z,13.87
2019-05-03T14:37:45.888Z,14.67
2019-05-03T14:40:15.330Z,14.57
2019-05-03T14:42:44.610Z,15.27
2019-05-03T14:45:15.060Z,12.10
2019-05-03T14:47:43.841Z,14.43
2019-05-03T14:50:15.004Z,14.23
2019-05-03T14:52:45.296Z,11.87
2019-05-03T14:55:27.956Z,12.07
2019-05-03T14:58:00.767Z,17.80
2019-05-03T15:00:31.141Z,14.80
2019-05-03T15:03:01.388Z,14.57
2019-05-03T15:05:29.996Z,15.30
2019-05-03T15:07:58.578Z,14.63
2019-05-03T15:10:27.195Z,15.50
2019-05-03T15:13:00.201Z,11.80
2019-05-03T15:15:29.068Z,11.87
2019-05-03T15:17:57.700Z,13.40
2019-05-03T15:20:26.242Z,11.60
2019-05-03T15:22:54.992Z,12.10
2019-05-03T15:25:25.059Z,12.20
2019-05-03T15:27:55.378Z,14.43
2019-05-03T15:30:25.600Z,12.20
2019-05-03T15:33:00.220Z,15.00
2019-05-03T15:35:25.904Z,17.00
2019-05-03T15:37:55.790Z,17.73
2019-05-03T15:40:30.672Z,12.47
2019-05-03T15:43:05.572Z,14.60
2019-05-03T15:45:56.822Z,11.20
2019-05-03T15:48:35.990Z,15.70
2019-05-03T15:51:04.805Z,10.90
2019-05-03T15:53:40.266Z,17.23
2019-05-03T15:56:09.270Z,14.00
2019-05-03T15:58:37.898Z,15.10
2019-05-03T16:01:10.619Z,16.50
2019-05-03T16:03:39.246Z,13.10
2019-05-03T16:09:48.245Z,13.47
2019-05-03T16:46:05.731Z,13.27
2019-05-03T16:48:35.336Z,13.43
2019-05-03T16:51:04.141Z,15.60
2019-05-03T16:53:34.857Z,17.40
2019-05-03T16:56:03.524Z,12.93
2019-05-03T16:58:35.355Z,16.03
2019-05-03T17:01:04.542Z,26.97
2019-05-03T17:03:40.801Z,14.83
2019-05-03T17:06:06.744Z,15.33
2019-05-03T17:08:54.290Z,16.87
2019-05-03T17:11:24.968Z,14.13
2019-05-03T17:13:55.379Z,19.53
2019-05-03T17:16:24.889Z,19.07
2019-05-03T17:18:55.176Z,15.90
2019-05-03T17:21:25.467Z,14.73
2019-05-03T17:23:54.336Z,15.17
2019-05-03T17:26:24.876Z,18.63
2019-05-03T17:28:55.216Z,17.47
2019-05-03T17:31:24.399Z,20.13
2019-05-03T17:33:56.696Z,21.00
2019-05-03T17:36:26.155Z,18.80
2019-05-03T17:38:56.108Z,16.07
2019-05-03T17:41:35.342Z,19.37
2019-05-03T17:44:05.758Z,18.33
2019-05-03T17:46:34.840Z,18.17
2019-05-03T17:49:05.230Z,19.17
2019-05-03T17:51:50.850Z,16.77
2019-05-03T17:54:27.296Z,20.20
2019-05-03T17:57:00.950Z,20.57
2019-05-03T17:59:31.510Z,15.73
2019-05-03T18:02:18.273Z,17.17
2019-05-03T18:05:05.245Z,18.53
2019-05-03T18:07:38.580Z,17.83
2019-05-03T18:10:08.447Z,22.40
2019-05-03T18:12:37.070Z,18.10
2019-05-03T18:15:07.006Z,18.87
2019-05-03T18:17:35.773Z,24.30
2019-05-03T18:20:10.364Z,18.93
2019-05-03T18:22:39.046Z,19.40
2019-05-03T18:25:08.012Z,18.37
2019-05-03T18:27:37.415Z,15.50
2019-05-03T18:30:09.033Z,16.20
2019-05-03T18:32:37.894Z,14.70
2019-05-03T18:35:06.785Z,13.37
2019-05-03T18:37:35.499Z,16.70
2019-05-03T18:40:06.391Z,15.97
2019-05-03T18:42:55.090Z,15.73
2019-05-03T18:45:31.303Z,18.13
2019-05-03T18:48:00.005Z,22.10
2019-05-03T18:50:28.631Z,18.13
2019-05-03T18:52:57.362Z,14.73
2019-05-03T18:55:26.166Z,25.07
2019-05-03T18:57:54.822Z,17.27
2019-05-03T19:00:25.192Z,29.40
2019-05-03T19:02:55.553Z,17.57
2019-05-03T19:05:25.938Z,21.70
2019-05-03T19:07:56.199Z,18.27
2019-05-03T19:10:26.433Z,18.17
2019-05-03T19:12:56.724Z,20.43
2019-05-03T19:15:25.427Z,16.20
2019-05-03T19:17:55.785Z,14.97
2019-05-03T19:20:24.753Z,16.73
2019-05-03T19:22:54.411Z,19.93
2019-05-03T19:25:25.330Z,14.70
2019-05-03T19:27:54.553Z,22.37
2019-05-03T19:30:24.450Z,17.13
2019-05-03T19:32:55.073Z,20.87
2019-05-03T19:35:24.930Z,15.20
2019-05-03T19:37:55.494Z,15.60
2019-05-03T19:40:25.646Z,16.57
2019-05-03T19:42:57.139Z,17.03
2019-05-03T19:45:26.181Z,15.83
2019-05-03T19:47:55.336Z,17.43
2019-05-03T19:50:26.983Z,17.83
2019-05-03T19:53:14.368Z,16.40
2019-05-03T19:55:50.349Z,16.17
2019-05-03T19:58:20.851Z,12.37
2019-05-03T20:00:54.903Z,21.50
2019-05-03T20:03:37.992Z,20.23
2019-05-03T20:06:10.853Z,19.50
2019-05-03T20:08:50.147Z,22.67
2019-05-03T20:11:19.106Z,17.53
2019-05-03T20:13:48.145Z,22.20
2019-05-03T20:16:16.869Z,22.03
2019-05-03T20:18:45.872Z,19.93
2019-05-03T20:21:15.162Z,19.90
2019-05-03T20:23:44.708Z,17.47
2019-05-03T20:26:15.071Z,17.90
2019-05-03T20:28:44.968Z,17.73
2019-05-03T20:31:14.069Z,20.37
2019-05-03T20:33:42.658Z,18.30
2019-05-03T20:36:11.461Z,15.73
2019-05-03T20:38:40.104Z,17.50
2019-05-03T20:41:10.949Z,16.10
2019-05-03T20:43:44.572Z,18.87
2019-05-03T20:46:28.402Z,19.57
2019-05-03T20:48:58.899Z,17.07
2019-05-03T20:51:27.813Z,17.23
2019-05-03T20:53:56.499Z,16.67
2019-05-03T20:56:25.401Z,17.87
2019-05-03T20:58:55.019Z,15.20
2019-05-03T21:01:25.549Z,15.97
2019-05-03T21:03:54.359Z,17.23
2019-05-03T21:06:35.130Z,16.03
2019-05-03T21:08:56.405Z,18.60
2019-05-03T21:11:25.170Z,18.83
2019-05-03T21:13:54.151Z,15.77
2019-05-03T21:16:40.983Z,14.57
2019-05-03T21:19:13.481Z,16.40
2019-05-03T21:21:44.515Z,15.60
2019-05-03T21:24:14.999Z,15.20
2019-05-03T21:26:45.123Z,18.43
2019-05-03T21:29:15.184Z,17.50
2019-05-03T21:31:44.514Z,16.97
2019-05-03T21:34:14.804Z,17.30
2019-05-03T21:36:45.326Z,18.50
2019-05-03T21:39:14.650Z,18.33
2019-05-03T21:41:45.035Z,18.57
2019-05-03T21:44:15.768Z,20.80
2019-05-03T21:46:46.173Z,22.93
2019-05-03T21:49:28.585Z,24.03
2019-05-03T21:51:57.327Z,22.70
2019-05-03T21:54:26.061Z,21.17
2019-05-03T21:56:55.116Z,22.63
2019-05-03T21:59:26.663Z,21.30
2019-05-03T22:01:55.575Z,22.33
2019-05-03T22:04:24.891Z,22.83
2019-05-03T22:06:54.897Z,23.70
2019-05-03T22:09:23.693Z,23.53
2019-05-03T22:11:52.407Z,25.97
2019-05-03T22:14:24.488Z,22.90
2019-05-03T22:16:55.371Z,20.63
2019-05-03T22:19:25.086Z,23.97
2019-05-03T22:22:11.638Z,14.93
2019-05-03T22:24:42.218Z,14.13
2019-05-03T22:27:12.715Z,17.63
2019-05-03T22:29:41.430Z,11.17
2019-05-03T22:32:10.231Z,10.63
2019-05-03T22:34:39.115Z,10.20
2019-05-03T22:37:07.891Z,11.07
2019-05-03T22:39:36.755Z,11.30
2019-05-03T22:42:05.701Z,12.33
2019-05-03T22:44:35.976Z,12.07
2019-05-03T22:47:05.939Z,9.70
2019-05-03T22:49:37.184Z,11.67
2019-05-03T22:52:05.136Z,14.87
2019-05-03T22:54:34.602Z,12.40
2019-05-03T22:57:04.808Z,11.37
2019-05-03T22:59:34.463Z,10.93
2019-05-03T23:02:03.315Z,10.93
2019-05-03T23:04:31.951Z,10.37
2019-05-03T23:07:00.617Z,10.53
2019-05-03T23:09:29.191Z,11.27
2019-05-03T23:11:57.767Z,11.67
2019-05-03T23:14:26.311Z,11.47
2019-05-03T23:17:09.899Z,11.47
2019-05-03T23:19:40.078Z,10.20
2019-05-03T23:22:15.800Z,8.23
2019-05-03T23:24:44.475Z,7.53
2019-05-03T23:27:14.405Z,5.30
2019-05-03T23:29:45.267Z,8.13
2019-05-03T23:32:15.127Z,3.83
2019-05-03T23:34:43.684Z,3.70
2019-05-03T23:37:12.220Z,5.73
2019-05-03T23:39:40.789Z,2.07
2019-05-03T23:42:09.356Z,2.07
2019-05-03T23:44:37.899Z,2.00
2019-05-03T23:47:08.209Z,2.53
2019-05-03T23:49:36.907Z,1.97
2019-05-03T23:52:07.126Z,2.77
2019-05-03T23:54:35.700Z,3.40
2019-05-03T23:57:04.359Z,1.50
2019-05-03T23:59:33.072Z,4.20
